OIMC  Sarakhs  Airport

Sarakhs, Iran

Add Bookmark
ICAO OIMC
IATA CKT
Type Airport
Status Operational
Latitude
36° 30' 4" N
36.501202
Longitude
61° 3' 53" E
61.064899
Local (GMT +4.5 ) UTC
May 31, 2016 06:32 am May 31, 2016 02:02
Sunrise-Sunset Local UTC
Begin Civil Twilight 04:37 am 00:07
Sunrise 05:07 am 00:37
Sunset 07:39 pm 15:09
End Civil Twilight 08:09 pm 15:39
VFR
VFR
MVFR
MVFR
IFR
IFR
LIFR
LIFR
Unknown
Unavailable

Current Weather

METAR Observed VFR
OIMC 301700Z 03008KT CAVOK 34/01 Q1003 Mon, May 30, 2016 @ 17:00 UTC
(9 Hours, 2 Minutes ago)
Visual Flight Rules
Wind Visibility Conditions
030° at 8 knots (15 kph) 10 km or more
  • No significant weather
Temperatures Readings Precipitation
Current Temp
34°C
93°F
Dewpoint
1°C
34°F
Humidity 12%
Altimeter 29.62" Hg
Sea Level Pressure 1,003 mb
Field Elevation
288 m
945 ft
None Recorded
-
-

CheckWX.com is intended as a tool to help pilots better visualize weather data. It is not intended as a substitute for an official weather briefing obtained from a Flight Service Station. CheckWX.com does not meet the FAA requirements for an official pre-flight weather briefing. Therefore, it's important that pilots still call and obtain an official FSS pre-flight weather briefing.

© 2007-2016 CheckWX.com
02:02:16 UTC